Terminal Aerodrome Forecast
Issued by NWS Jackson, MS

Home | Current Version | Previous Version | Text Only | Print | Product List | Glossary On
Versions: 1 2 3 4 5 6 7 8 9 10 11 12 13 14 15 16 17 18
000
FTUS44 KJAN 041720
TAFHBG
TAF
KHBG 041720Z 0418/0518 24008KT P6SM VCSH BKN050
     FM042000 24006KT 3SM TSRA SCT030 BKN050CB
     FM050100 18005KT P6SM VCSH BKN060
     FM050600 VRB04KT 3SM SHRA VCTS OVC080CB
     FM051300 20005KT P6SM BKN050=

USA.gov is the U.S. government's official web portal to all federal, state and local government web resources and services.